createdAt,value
2022-11-29T00:01:14.285Z,11.20
2022-11-29T00:03:41.300Z,10.10
2022-11-29T00:06:13.535Z,8.77
2022-11-29T00:08:41.467Z,9.70
2022-11-29T00:11:11.082Z,9.33
2022-11-29T00:13:38.353Z,10.03
2022-11-29T00:16:08.483Z,10.87
2022-11-29T00:18:35.986Z,10.87
2022-11-29T00:21:07.309Z,9.53
2022-11-29T00:23:34.734Z,9.47
2022-11-29T00:26:06.541Z,10.77
2022-11-29T00:28:34.798Z,9.50
2022-11-29T00:31:01.816Z,12.90
2022-11-29T00:33:29.051Z,10.90
2022-11-29T00:35:56.098Z,11.57
2022-11-29T00:38:22.776Z,10.40
2022-11-29T00:40:52.867Z,11.00
2022-11-29T00:43:19.578Z,11.27
2022-11-29T00:45:46.270Z,12.10
2022-11-29T00:48:13.194Z,11.53
2022-11-29T00:50:39.927Z,11.57
2022-11-29T00:53:06.604Z,10.63
2022-11-29T00:55:33.465Z,12.83
2022-11-29T00:58:00.119Z,13.53
2022-11-29T01:00:27.316Z,12.67
2022-11-29T01:02:54.155Z,11.13
2022-11-29T01:05:20.938Z,11.50
2022-11-29T01:07:47.772Z,14.10
2022-11-29T01:10:14.660Z,16.33
2022-11-29T01:12:41.336Z,13.33
2022-11-29T01:15:08.811Z,11.93
2022-11-29T01:17:36.255Z,11.13
2022-11-29T01:20:04.148Z,11.83
2022-11-29T01:22:30.865Z,11.77
2022-11-29T01:24:57.558Z,11.20
2022-11-29T01:27:24.853Z,11.03
2022-11-29T01:29:51.627Z,11.13
2022-11-29T01:32:18.413Z,10.23
2022-11-29T01:34:45.341Z,11.00
2022-11-29T01:37:12.379Z,12.60
2022-11-29T01:39:39.346Z,11.97
2022-11-29T01:42:06.275Z,11.07
2022-11-29T01:44:32.831Z,10.47
2022-11-29T01:46:59.667Z,9.17
2022-11-29T01:49:38.802Z,10.37
2022-11-29T01:52:12.951Z,10.17
2022-11-29T01:54:44.247Z,10.57
2022-11-29T01:57:13.740Z,8.73
2022-11-29T01:59:47.483Z,10.17
2022-11-29T02:02:19.105Z,9.40
2022-11-29T02:04:48.363Z,9.43
2022-11-29T02:07:15.494Z,8.80
2022-11-29T02:09:42.497Z,8.50
2022-11-29T02:12:23.404Z,7.63
2022-11-29T02:15:11.723Z,7.43
2022-11-29T02:18:03.207Z,8.03
2022-11-29T02:20:57.757Z,8.07
2022-11-29T02:23:54.997Z,7.70
2022-11-29T02:26:48.599Z,8.67
2022-11-29T02:29:24.256Z,8.40
2022-11-29T02:32:03.057Z,9.03
2022-11-29T02:34:32.448Z,12.17
2022-11-29T02:37:28.406Z,10.07
2022-11-29T02:40:00.564Z,8.83
2022-11-29T02:42:57.018Z,10.37
2022-11-29T02:45:36.220Z,9.30
2022-11-29T02:48:08.442Z,8.90
2022-11-29T02:50:42.326Z,8.23
2022-11-29T02:53:51.184Z,9.50
2022-11-29T02:56:42.007Z,11.33
2022-11-29T02:59:36.139Z,9.57
2022-11-29T03:02:21.531Z,11.40
2022-11-29T03:05:12.941Z,9.23
2022-11-29T03:07:49.169Z,11.63
2022-11-29T03:10:34.746Z,9.80
2022-11-29T03:13:05.505Z,9.17
2022-11-29T03:15:38.029Z,9.20
2022-11-29T03:18:23.450Z,11.17
2022-11-29T03:21:19.476Z,10.83
2022-11-29T03:23:58.860Z,11.40
2022-11-29T03:26:43.659Z,12.07
2022-11-29T03:29:38.466Z,14.63
2022-11-29T03:32:38.177Z,16.40
2022-11-29T03:35:16.931Z,12.97
2022-11-29T03:38:09.057Z,15.20
2022-11-29T03:40:54.419Z,14.73
2022-11-29T03:43:33.259Z,15.67
2022-11-29T03:46:04.862Z,16.57
2022-11-29T03:48:36.495Z,12.07
2022-11-29T03:51:14.076Z,12.63
2022-11-29T03:54:05.667Z,11.57
2022-11-29T03:56:35.418Z,10.87
2022-11-29T03:59:31.223Z,10.00
2022-11-29T04:02:35.429Z,14.03
2022-11-29T04:05:25.133Z,13.23
2022-11-29T04:08:08.096Z,12.67
2022-11-29T04:10:52.808Z,11.93
2022-11-29T04:14:03.272Z,14.00
2022-11-29T04:16:54.192Z,13.87
2022-11-29T04:19:38.916Z,15.33
2022-11-29T04:22:39.690Z,12.07
2022-11-29T04:25:12.663Z,14.03
2022-11-29T04:27:51.342Z,12.20
2022-11-29T04:30:25.795Z,14.97
2022-11-29T04:33:19.536Z,13.73
2022-11-29T04:36:07.334Z,11.67
2022-11-29T04:38:58.797Z,15.00
2022-11-29T04:41:46.294Z,12.87
2022-11-29T04:44:46.005Z,12.93
2022-11-29T04:47:39.186Z,15.60
2022-11-29T04:50:13.073Z,20.30
2022-11-29T04:53:22.762Z,14.50
2022-11-29T04:56:00.915Z,13.03
2022-11-29T04:58:34.077Z,16.33
2022-11-29T05:01:15.879Z,13.53
2022-11-29T05:03:56.927Z,17.23
2022-11-29T05:06:40.530Z,20.13
2022-11-29T05:09:12.563Z,13.70
2022-11-29T05:12:29.540Z,15.70
2022-11-29T05:15:14.926Z,14.93
2022-11-29T05:17:57.278Z,15.00
2022-11-29T05:20:36.104Z,19.30
2022-11-29T05:23:32.281Z,15.30
2022-11-29T05:26:14.478Z,18.20
2022-11-29T05:28:58.827Z,16.60
2022-11-29T05:31:35.163Z,15.50
2022-11-29T05:34:44.567Z,16.10
2022-11-29T05:37:35.620Z,15.77
2022-11-29T05:40:22.421Z,16.37
2022-11-29T05:43:26.892Z,16.13
2022-11-29T05:46:18.323Z,15.20
2022-11-29T05:49:06.791Z,15.73
2022-11-29T05:51:58.829Z,17.00
2022-11-29T05:54:42.570Z,15.77
2022-11-29T05:57:42.684Z,16.83
2022-11-29T06:00:14.633Z,15.73
2022-11-29T06:03:00.583Z,19.87
2022-11-29T06:05:53.188Z,18.20
2022-11-29T06:08:44.759Z,20.77
2022-11-29T06:11:27.902Z,17.57
2022-11-29T06:14:22.584Z,14.97
2022-11-29T06:16:52.067Z,16.97
2022-11-29T06:19:37.536Z,16.83
2022-11-29T06:22:31.803Z,16.67
2022-11-29T06:25:12.865Z,14.77
2022-11-29T06:27:54.366Z,15.03
2022-11-29T06:30:27.822Z,17.80
2022-11-29T06:33:23.623Z,17.20
2022-11-29T06:36:07.292Z,16.73
2022-11-29T06:38:34.583Z,15.47
2022-11-29T06:41:02.538Z,17.67
2022-11-29T06:43:30.245Z,15.40
2022-11-29T06:46:26.683Z,19.53
2022-11-29T06:49:03.056Z,15.93
2022-11-29T06:51:53.090Z,17.37
2022-11-29T06:54:25.554Z,19.67
2022-11-29T06:57:14.323Z,15.40
2022-11-29T06:59:47.369Z,18.73
2022-11-29T07:02:43.267Z,14.80
2022-11-29T07:05:15.823Z,15.53
2022-11-29T07:07:43.223Z,14.43
2022-11-29T07:10:18.090Z,15.60
2022-11-29T07:12:46.703Z,14.33
2022-11-29T07:15:22.539Z,16.23
2022-11-29T07:18:01.713Z,16.87
2022-11-29T07:20:50.817Z,15.90
2022-11-29T07:23:20.499Z,13.67
2022-11-29T07:26:03.606Z,14.37
2022-11-29T07:28:36.577Z,15.90
2022-11-29T07:31:14.777Z,15.47
2022-11-29T07:33:58.770Z,15.67
2022-11-29T07:36:45.484Z,14.00
2022-11-29T07:39:40.362Z,14.97
2022-11-29T07:42:29.162Z,13.63
2022-11-29T07:45:18.802Z,14.10
2022-11-29T07:47:46.373Z,13.67
2022-11-29T07:50:13.179Z,15.07
2022-11-29T07:52:40.103Z,16.60
2022-11-29T07:55:07.298Z,18.23
2022-11-29T07:57:36.488Z,15.07
2022-11-29T08:00:04.654Z,13.07
2022-11-29T08:02:38.609Z,16.37
2022-11-29T08:05:05.834Z,14.00
2022-11-29T08:07:35.904Z,16.30
2022-11-29T08:10:03.650Z,15.40
2022-11-29T08:12:30.342Z,13.73
2022-11-29T08:14:56.978Z,14.27
2022-11-29T08:17:24.909Z,17.00
2022-11-29T08:19:52.580Z,15.63
2022-11-29T08:22:19.230Z,14.87
2022-11-29T08:24:46.307Z,14.97
2022-11-29T08:27:13.266Z,13.27
2022-11-29T08:29:40.119Z,14.83
2022-11-29T08:32:07.008Z,14.13
2022-11-29T08:34:33.701Z,13.67
2022-11-29T08:37:00.534Z,14.60
2022-11-29T08:39:27.244Z,12.70
2022-11-29T08:41:54.146Z,14.13
2022-11-29T08:44:20.963Z,13.30
2022-11-29T08:47:06.156Z,13.30
2022-11-29T08:49:33.400Z,12.43
2022-11-29T08:52:18.565Z,11.53
2022-11-29T08:54:45.622Z,12.53
2022-11-29T08:59:59.044Z,11.53
2022-11-29T09:02:25.917Z,10.97
2022-11-29T09:04:52.619Z,9.63
2022-11-29T09:07:19.368Z,10.40
2022-11-29T09:09:46.966Z,12.17
2022-11-29T09:12:14.715Z,11.47
2022-11-29T09:14:41.687Z,11.63
2022-11-29T09:17:08.371Z,11.23
2022-11-29T09:19:35.159Z,11.00
2022-11-29T09:22:01.808Z,10.63
2022-11-29T09:24:28.617Z,9.33
2022-11-29T09:26:55.358Z,9.47
2022-11-29T09:29:22.243Z,9.53
2022-11-29T09:31:49.152Z,11.97
2022-11-29T09:34:18.532Z,8.93
2022-11-29T09:36:45.311Z,8.33
2022-11-29T09:39:15.086Z,8.73
2022-11-29T09:42:00.647Z,9.50
2022-11-29T09:44:54.354Z,10.57
2022-11-29T09:47:28.650Z,9.23
2022-11-29T09:50:28.180Z,7.97
2022-11-29T09:53:18.420Z,9.50
2022-11-29T09:55:57.170Z,11.13
2022-11-29T09:58:31.192Z,8.27
2022-11-29T10:01:03.182Z,9.00
2022-11-29T10:03:44.367Z,11.20
2022-11-29T10:06:19.504Z,11.00
2022-11-29T10:09:17.716Z,9.30
2022-11-29T10:12:09.036Z,11.80
2022-11-29T10:14:57.104Z,11.37
2022-11-29T10:17:34.578Z,12.07
2022-11-29T10:20:16.526Z,12.87
2022-11-29T10:22:56.245Z,11.93
2022-11-29T10:25:33.864Z,9.90
2022-11-29T10:28:01.008Z,13.03
2022-11-29T10:30:27.684Z,8.87
2022-11-29T10:33:00.554Z,11.47
2022-11-29T10:35:29.552Z,11.10
2022-11-29T10:38:29.675Z,11.67
2022-11-29T10:40:53.047Z,10.00
2022-11-29T10:43:20.299Z,11.10
2022-11-29T10:45:50.859Z,9.83
2022-11-29T10:48:23.298Z,10.00
2022-11-29T10:50:51.900Z,10.07
2022-11-29T10:53:32.819Z,11.70
2022-11-29T10:56:24.033Z,10.83
2022-11-29T10:59:24.311Z,11.07
2022-11-29T11:01:51.751Z,10.57
2022-11-29T11:04:31.410Z,10.23
2022-11-29T11:07:03.934Z,10.77
2022-11-29T11:09:36.755Z,11.33
2022-11-29T11:12:13.842Z,11.10
2022-11-29T11:14:41.413Z,11.23
2022-11-29T11:17:26.987Z,10.13
2022-11-29T11:20:00.982Z,11.60
2022-11-29T11:22:29.620Z,10.97
2022-11-29T11:25:05.169Z,9.53
2022-11-29T11:27:42.314Z,10.23
2022-11-29T11:30:22.177Z,9.37
2022-11-29T11:33:27.995Z,10.47
2022-11-29T11:36:13.112Z,8.83
2022-11-29T11:38:49.651Z,9.20
2022-11-29T11:41:48.239Z,9.43
2022-11-29T11:44:50.393Z,8.57
2022-11-29T11:47:27.212Z,11.70
2022-11-29T11:50:06.902Z,10.63
2022-11-29T11:52:44.951Z,9.90
2022-11-29T11:55:21.832Z,8.57
2022-11-29T11:58:16.070Z,8.90
2022-11-29T12:01:04.427Z,9.80
2022-11-29T12:03:43.218Z,8.43
2022-11-29T12:06:29.618Z,7.80
2022-11-29T12:09:10.603Z,9.83
2022-11-29T12:11:47.161Z,7.33
2022-11-29T12:14:23.406Z,7.43
2022-11-29T12:16:53.562Z,9.30
2022-11-29T12:19:28.342Z,8.20
2022-11-29T12:22:03.127Z,7.87
2022-11-29T12:24:35.756Z,9.13
2022-11-29T12:27:05.019Z,8.83
2022-11-29T12:29:34.213Z,8.73
2022-11-29T12:32:14.591Z,7.23
2022-11-29T12:34:59.412Z,10.00
2022-11-29T12:37:39.394Z,6.33
2022-11-29T12:40:17.828Z,9.00
2022-11-29T12:43:10.934Z,8.53
2022-11-29T12:45:40.419Z,7.87
2022-11-29T12:48:16.681Z,7.50
2022-11-29T12:51:05.425Z,9.53
2022-11-29T12:53:56.072Z,7.97
2022-11-29T12:56:52.231Z,7.30
2022-11-29T12:59:41.870Z,7.43
2022-11-29T13:02:26.033Z,6.27
2022-11-29T13:05:03.890Z,7.27
2022-11-29T13:07:58.260Z,7.80
2022-11-29T13:10:51.454Z,10.80
2022-11-29T13:13:24.218Z,10.73
2022-11-29T13:16:31.289Z,9.43
2022-11-29T13:19:45.824Z,9.97
2022-11-29T13:22:19.996Z,12.37
2022-11-29T13:24:54.966Z,9.87
2022-11-29T13:27:29.883Z,10.93
2022-11-29T13:29:59.416Z,10.30
2022-11-29T13:32:59.759Z,11.77
2022-11-29T13:35:43.429Z,11.40
2022-11-29T13:38:14.740Z,12.63
2022-11-29T13:41:31.630Z,11.70
2022-11-29T13:44:10.063Z,10.47
2022-11-29T13:46:54.594Z,7.97
2022-11-29T13:50:16.578Z,10.47
2022-11-29T13:52:47.620Z,10.10
2022-11-29T13:55:14.599Z,11.07
2022-11-29T13:58:14.836Z,12.13
2022-11-29T14:00:57.698Z,13.03
2022-11-29T14:03:24.957Z,11.20
2022-11-29T14:05:52.842Z,8.03
2022-11-29T14:09:02.016Z,12.03
2022-11-29T14:11:27.543Z,11.67
2022-11-29T14:13:56.926Z,11.87
2022-11-29T14:16:41.930Z,13.03
2022-11-29T14:19:09.232Z,9.60
2022-11-29T14:22:06.600Z,11.30
2022-11-29T14:24:36.130Z,9.23
2022-11-29T14:27:05.820Z,10.40
2022-11-29T14:29:48.403Z,12.37
2022-11-29T14:32:46.192Z,12.93
2022-11-29T14:35:23.132Z,12.47
2022-11-29T14:38:04.496Z,8.87
2022-11-29T14:41:00.843Z,10.07
2022-11-29T14:43:35.318Z,11.40
2022-11-29T14:46:14.560Z,8.40
2022-11-29T14:48:44.523Z,11.07
2022-11-29T14:51:16.887Z,8.97
2022-11-29T14:53:45.913Z,8.13
2022-11-29T14:56:30.814Z,8.93
2022-11-29T14:59:34.880Z,10.70
2022-11-29T15:02:38.958Z,10.80
2022-11-29T15:05:30.716Z,10.27
2022-11-29T15:08:09.457Z,11.93
2022-11-29T15:10:50.612Z,9.20
2022-11-29T15:13:27.725Z,10.30
2022-11-29T15:16:11.453Z,10.50
2022-11-29T15:18:55.371Z,9.80
2022-11-29T15:21:40.525Z,11.77
2022-11-29T15:24:15.312Z,12.10
2022-11-29T15:27:02.164Z,11.20
2022-11-29T15:29:30.875Z,9.50
2022-11-29T15:32:00.601Z,11.67
2022-11-29T15:34:32.317Z,10.70
2022-11-29T15:37:00.385Z,10.60
2022-11-29T15:39:34.646Z,15.17
2022-11-29T15:42:03.758Z,11.30
2022-11-29T15:44:32.638Z,12.97
2022-11-29T15:47:22.015Z,15.73
2022-11-29T15:49:50.038Z,14.47
2022-11-29T15:52:28.672Z,11.23
2022-11-29T15:55:01.232Z,13.17
2022-11-29T15:57:36.591Z,14.67
2022-11-29T16:00:08.932Z,13.60
2022-11-29T16:02:40.732Z,15.13
2022-11-29T16:05:21.724Z,14.90
2022-11-29T16:07:53.151Z,11.63
2022-11-29T16:10:24.358Z,14.20
2022-11-29T16:12:57.849Z,17.07
2022-11-29T16:15:32.708Z,15.73
2022-11-29T16:18:11.882Z,14.80
2022-11-29T16:20:39.075Z,16.60
2022-11-29T16:23:11.310Z,14.70
2022-11-29T16:25:53.909Z,15.00
2022-11-29T16:28:20.890Z,15.47
2022-11-29T16:30:47.754Z,18.77
2022-11-29T16:33:24.356Z,15.90
2022-11-29T16:35:51.833Z,18.63
2022-11-29T16:38:21.747Z,20.23
2022-11-29T16:41:05.643Z,21.43
2022-11-29T16:43:46.785Z,24.13
2022-11-29T16:46:22.663Z,19.33
2022-11-29T16:48:50.100Z,21.17
2022-11-29T16:51:42.690Z,24.27
2022-11-29T16:54:38.796Z,25.77
2022-11-29T16:57:06.892Z,22.30
2022-11-29T16:59:35.177Z,23.77
2022-11-29T17:02:01.995Z,24.20
2022-11-29T17:04:28.956Z,24.17
2022-11-29T17:06:57.206Z,28.60
2022-11-29T17:09:27.646Z,27.77
2022-11-29T17:11:55.846Z,27.97
2022-11-29T17:14:22.599Z,27.03
2022-11-29T17:16:49.957Z,26.83
2022-11-29T17:19:16.939Z,31.53
2022-11-29T17:21:44.500Z,32.93
2022-11-29T17:24:17.667Z,32.50
2022-11-29T17:26:45.240Z,29.53
2022-11-29T17:29:13.360Z,32.03
2022-11-29T17:31:42.477Z,28.73
2022-11-29T17:34:09.247Z,26.73
2022-11-29T17:36:36.139Z,26.03
2022-11-29T17:39:05.249Z,29.00
2022-11-29T17:41:32.836Z,28.60
2022-11-29T17:44:00.578Z,31.27
2022-11-29T17:46:32.327Z,28.03
2022-11-29T17:49:00.810Z,29.93
2022-11-29T17:51:51.317Z,25.77
2022-11-29T17:54:15.507Z,26.00
2022-11-29T17:56:42.282Z,26.93
2022-11-29T17:59:09.035Z,28.13
2022-11-29T18:01:36.320Z,28.63
2022-11-29T18:04:05.416Z,30.80
2022-11-29T18:06:38.579Z,27.23
2022-11-29T18:09:07.914Z,31.37
2022-11-29T18:11:46.923Z,26.80
2022-11-29T18:14:23.382Z,28.53
2022-11-29T18:16:50.899Z,31.77
2022-11-29T18:19:20.421Z,32.07
2022-11-29T18:21:47.845Z,30.60
2022-11-29T18:24:14.630Z,29.53
2022-11-29T18:26:41.686Z,30.93
2022-11-29T18:29:09.347Z,28.87
2022-11-29T18:31:38.710Z,31.23
2022-11-29T18:34:09.397Z,29.50
2022-11-29T18:36:39.085Z,29.17
2022-11-29T18:39:08.769Z,29.37
2022-11-29T18:41:35.939Z,27.17
2022-11-29T18:44:05.805Z,30.80
2022-11-29T18:46:33.121Z,29.30
2022-11-29T18:49:01.859Z,32.43
2022-11-29T18:51:30.258Z,33.40
2022-11-29T18:53:58.669Z,32.57
2022-11-29T18:56:28.497Z,31.87
2022-11-29T18:58:58.872Z,26.93
2022-11-29T19:01:28.001Z,31.13
2022-11-29T19:03:58.358Z,35.63
2022-11-29T19:06:27.609Z,29.80
2022-11-29T19:08:54.741Z,29.73
2022-11-29T19:11:23.270Z,30.80
2022-11-29T19:13:59.848Z,34.43
2022-11-29T19:16:28.982Z,29.97
2022-11-29T19:18:57.159Z,31.67
2022-11-29T19:21:25.518Z,28.87
2022-11-29T19:23:56.777Z,32.17
2022-11-29T19:26:26.149Z,38.33
2022-11-29T19:28:53.545Z,29.13
2022-11-29T19:31:24.739Z,37.20
2022-11-29T19:33:52.809Z,34.30
2022-11-29T19:36:22.326Z,29.87
2022-11-29T19:38:53.667Z,29.17
2022-11-29T19:41:24.027Z,32.73
2022-11-29T19:43:51.407Z,33.33
2022-11-29T19:46:23.246Z,32.20
2022-11-29T19:48:52.778Z,33.10
2022-11-29T19:51:20.287Z,32.03
2022-11-29T19:53:51.554Z,32.97
2022-11-29T19:56:19.419Z,30.27
2022-11-29T19:58:46.865Z,31.87
2022-11-29T20:01:22.830Z,30.03
2022-11-29T20:03:49.924Z,32.27
2022-11-29T20:06:17.313Z,34.03
2022-11-29T20:08:44.958Z,31.20
2022-11-29T20:11:17.592Z,33.27
2022-11-29T20:13:46.234Z,33.27
2022-11-29T20:16:15.160Z,30.90
2022-11-29T20:18:48.959Z,35.30
2022-11-29T20:21:21.894Z,32.23
2022-11-29T20:23:49.277Z,33.97
2022-11-29T20:26:20.407Z,31.13
2022-11-29T20:28:47.784Z,29.60
2022-11-29T20:31:21.133Z,34.47
2022-11-29T20:33:48.628Z,32.97
2022-11-29T20:36:48.243Z,32.83
2022-11-29T20:39:43.232Z,34.13
2022-11-29T20:42:21.728Z,31.33
2022-11-29T20:44:54.054Z,33.40
2022-11-29T20:47:24.076Z,35.97
2022-11-29T20:49:51.172Z,33.47
2022-11-29T20:52:33.091Z,38.43
2022-11-29T20:55:00.008Z,36.13
2022-11-29T20:57:26.926Z,37.13
2022-11-29T20:59:53.682Z,31.50
2022-11-29T21:02:20.875Z,33.43
2022-11-29T21:04:47.800Z,33.77
2022-11-29T21:07:15.006Z,33.60
2022-11-29T21:09:41.954Z,39.83
2022-11-29T21:12:09.174Z,38.20
2022-11-29T21:14:36.535Z,36.80
2022-11-29T21:17:03.634Z,34.27
2022-11-29T21:19:30.555Z,35.60
2022-11-29T21:22:18.184Z,36.87
2022-11-29T21:25:14.049Z,34.63
2022-11-29T21:27:41.750Z,33.03
2022-11-29T21:30:22.444Z,31.43
2022-11-29T21:32:49.704Z,32.90
2022-11-29T21:35:17.207Z,32.27
2022-11-29T21:37:44.608Z,33.27
2022-11-29T21:40:12.660Z,33.73
2022-11-29T21:42:39.618Z,31.23
2022-11-29T21:45:14.609Z,32.93
2022-11-29T21:47:42.578Z,33.37
2022-11-29T21:50:10.042Z,32.27
2022-11-29T21:52:36.710Z,34.17
2022-11-29T21:55:03.942Z,37.30
2022-11-29T21:57:30.776Z,39.87
2022-11-29T21:59:57.437Z,42.80
2022-11-29T22:02:24.431Z,38.37
2022-11-29T22:04:51.179Z,37.37
2022-11-29T22:07:18.050Z,40.33
2022-11-29T22:09:45.190Z,36.90
2022-11-29T22:12:32.324Z,46.83
2022-11-29T22:14:58.645Z,40.17
2022-11-29T22:17:25.380Z,39.00
2022-11-29T22:19:52.205Z,36.83
2022-11-29T22:22:18.908Z,40.57
2022-11-29T22:24:46.215Z,44.80
2022-11-29T22:27:13.081Z,42.17
2022-11-29T22:29:39.884Z,42.00
2022-11-29T22:32:06.576Z,41.10
2022-11-29T22:34:33.212Z,34.27
2022-11-29T22:37:00.078Z,40.80
2022-11-29T22:39:26.766Z,40.83
2022-11-29T22:41:54.978Z,38.57
2022-11-29T22:44:23.503Z,41.07
2022-11-29T22:46:50.814Z,36.53
2022-11-29T22:49:17.547Z,39.60
2022-11-29T22:51:44.283Z,37.87
2022-11-29T22:54:11.642Z,38.27
2022-11-29T22:56:41.038Z,40.70
2022-11-29T22:59:08.372Z,34.87
2022-11-29T23:01:37.562Z,37.23
2022-11-29T23:04:07.114Z,39.23
2022-11-29T23:06:39.901Z,36.40
2022-11-29T23:09:20.047Z,40.77
2022-11-29T23:11:51.796Z,36.83
2022-11-29T23:14:19.324Z,40.83
2022-11-29T23:16:46.212Z,39.37
2022-11-29T23:19:16.074Z,35.87
2022-11-29T23:21:45.619Z,40.80
2022-11-29T23:24:13.977Z,41.77
2022-11-29T23:26:43.802Z,42.27
2022-11-29T23:29:12.993Z,38.70
2022-11-29T23:31:40.299Z,42.27
2022-11-29T23:34:07.810Z,39.03
2022-11-29T23:36:35.082Z,42.00
2022-11-29T23:39:07.182Z,38.93
2022-11-29T23:41:35.955Z,41.07
2022-11-29T23:44:06.400Z,40.60
2022-11-29T23:46:34.551Z,40.70
2022-11-29T23:49:01.206Z,40.93
2022-11-29T23:51:28.148Z,40.70
2022-11-29T23:53:55.226Z,40.43
2022-11-29T23:56:22.888Z,40.63
2022-11-29T23:58:49.783Z,42.50
